メインページ
METAR-TAF:

METAR-TAF

空港 :

リスボン, ポルトガル

ウンベルト・デルガード空港

緯度: 38-46N, 経度: 009-08W, 海抜: 114m

現時点の気象観測

当レポートは24分前の20:30(UTC)に作成
北/北西の風 6kt
気温 10°C
湿度 62%
気圧 1010 hPa
視程10km以上
高度3500ftの雲はほとんどない

METAR: LPPT 112030Z 33006KT 9999 FEW035 10/03 Q1010

時間: 20:54 (20:54 UTC)

予報

当レポートは3時間54分前の17:00(UTC)に作成
予報は11日の 18時(UTC)から 12日の 24時(UTC)まで有効
北/北西の風 15kt
視程10km以上
高度3000ftの雲はほとんどない
11日の 18時(UTC)から 11日の 21時(UTC)まで一時的に
北西の風 20kt、最大30ktの突風を伴う
視程: 8000m
高度2500ftの千切れ雲あり
高度3000ftの雲はほとんどない, 積乱雲.
にわか雨
11日の 18時(UTC)から 11日の 21時(UTC)まで徐々に
の風 7kt
12日の 18時(UTC)から 12日の 21時(UTC)まで徐々に
北西の風 5kt

TAF: LPPT 111700Z 1118/1224 33015KT 9999 FEW030 TEMPO 1118/1121 32020G30KT 8000 SHRA BKN025 FEW030CB BECMG 1118/1121 36007KT BECMG 1218/1221 32005KT

4,000以上の空港の気象観測と天気予報(METAR報とTAF報)

利用可能な観測所は地図上に黄色い丸と赤い丸で示す。

丸の上にカーソルを重ねると観測所名を参照できる。

次にクリックすると気象観測と天気予報を参照できる。

マップの切り替え:黒色「×」印の緑ボタンをクリックして拡大、「-」印の緑ボタンをクリックして縮小、緑色の三角印をクリックして隣りの地図に切り替え


METAR-TAF: